Buoy 13872

sailwx.info

Track history (hours):
 
Tides and Currents Weather Stations Pressure Air Temp Water Temp Dewpoint Dewpoint Depression Visibility Wind Speed Wind Dir Waves Ship Positions

Drifting buoy 13872

Last reported at 2018-Jun-19 03:50 UTC. Time now 2018-Jun-19 04:41 UTC.
Position N 32°52' W 034°25'.

Barometer 1026.6 mb
Water temperature 24.6 ° C

Date/timePositionNaut miles runAvg speedWind from/ knotsBaromVisibWave heightAir tempDewpointWater temp
2018-Jun-19 03:50N 32°52' W 034°25'1 0.8 1026.6 24.6
2018-Jun-19 02:50N 32°51' W 034°25'1 1.0 1026.9 24.7
2018-Jun-19 01:50N 32°51' W 034°26'1 0.8 1027.2 24.7
2018-Jun-19 00:50N 32°50' W 034°27'2 0.8 1027.6 24.7
2018-Jun-18 22:50N 32°49' W 034°28'1 1.2 1027.6 24.5
2018-Jun-18 21:50N 32°48' W 034°28'1 0.6 1027.4 24.6
2018-Jun-18 20:50N 32°47' W 034°28'1 0.8 1027.2 24.7
2018-Jun-18 19:50N 32°47' W 034°29'0 0.0 1026.9 24.9
2018-Jun-18 18:50N 32°47' W 034°29'1 0.6 1026.7 25.0
2018-Jun-18 17:50N 32°46' W 034°29'1 0.6 1027.0 25.0
2018-Jun-18 16:50N 32°46' W 034°29'0 0.0 1027.2 25.0
2018-Jun-18 15:50N 32°46' W 034°29'1 0.6 1027.4 25.0
2018-Jun-18 13:50N 32°44' W 034°29'0 0.0 1027.5 24.8
2018-Jun-18 12:50N 32°44' W 034°29'0 0.0 1027.7 24.8
2018-Jun-18 11:50N 32°44' W 034°29'1 0.8 1027.8 24.7
2018-Jun-18 10:50N 32°44' W 034°29'1 0.5 1027.9 24.7
2018-Jun-18 08:50N 32°44' W 034°31'1 0.5 1027.9 24.7
2018-Jun-18 07:50N 32°44' W 034°31'1 0.5 1027.6 24.7
2018-Jun-18 06:50N 32°44' W 034°32'1 0.8 1027.5 24.7
2018-Jun-18 05:50N 32°43' W 034°32'1 1.2 1027.3 24.7
2018-Jun-18 04:50N 32°43' W 034°34'1 0.8 1027.5 24.7
2018-Jun-18 03:50N 32°42' W 034°34'1 1.2 1027.8 24.6
2018-Jun-18 02:50N 32°41' W 034°34'1 0.6 1028.0 24.7
2018-Jun-18 01:50N 32°40' W 034°34'1 0.6 1028.5 24.7
2018-Jun-18 00:50N 32°40' W 034°34'1 0.6 1028.9 24.7
2018-Jun-17 23:50N 32°39' W 034°34'1 0.5 1029.2 24.8
2018-Jun-17 22:50N 32°39' W 034°34'1 0.8 1029.0 24.8
2018-Jun-17 21:50N 32°38' W 034°33'0 0.0 1028.6 24.7
2018-Jun-17 20:50N 32°38' W 034°33'1 0.5 1028.1 24.7
2018-Jun-17 19:50N 32°38' W 034°32'0 0.0 1027.9 24.7
2018-Jun-17 18:50N 32°38' W 034°32'1 0.6 1027.8 24.7
2018-Jun-17 17:50N 32°38' W 034°32'0 0.0 1028.0 24.7
2018-Jun-17 16:50N 32°38' W 034°32'1 0.6 1028.2 24.8
2018-Jun-17 15:50N 32°37' W 034°32'1 0.6 1028.4 24.8
2018-Jun-17 14:50N 32°37' W 034°32'0 0.0 1028.6 24.7
2018-Jun-17 13:50N 32°37' W 034°32'1 0.6 1028.9 24.5
2018-Jun-17 12:50N 32°36' W 034°32'1 0.8 1029.0 24.6
2018-Jun-17 11:50N 32°35' W 034°32'1 0.6 1028.9 24.6
2018-Jun-17 10:50N 32°35' W 034°32'1 0.6 1028.6 24.7
2018-Jun-17 09:50N 32°34' W 034°32'0 0.0 1028.6 24.7
2018-Jun-17 08:50N 32°34' W 034°32'1 0.6 1028.4 24.6
2018-Jun-17 07:50N 32°34' W 034°32'0 0.0 1028.1 24.5
2018-Jun-17 06:50N 32°34' W 034°32'1 0.6 1027.7 24.5
2018-Jun-17 05:50N 32°33' W 034°32'1 0.6 1027.5 24.5
2018-Jun-17 04:50N 32°32' W 034°32'1 0.8 1027.6 24.6
2018-Jun-17 03:50N 32°32' W 034°31'0 0.0 1028.0 24.8
2018-Jun-17 02:50N 32°32' W 034°31'1 0.6 1028.2 24.9
2018-Jun-17 01:50N 32°31' W 034°31'0 0.0 1028.6 24.9
2018-Jun-17 00:50N 32°31' W 034°31'1 0.6 1029.0 24.9
2018-Jun-16 23:50N 32°31' W 034°31'1 0.5 1029.4 24.9
2018-Jun-16 22:50N 32°31' W 034°31'1 0.8 1029.3 25.0
2018-Jun-16 21:50N 32°30' W 034°30'1 0.6 1028.9 25.0
2018-Jun-16 20:50N 32°29' W 034°30'1 1.2 1028.7 24.9
2018-Jun-16 19:50N 32°29' W 034°29'1 0.5 1028.5 24.9
2018-Jun-16 18:50N 32°29' W 034°28'1 0.5 1028.3 24.8
2018-Jun-16 17:50N 32°29' W 034°28'1 0.5 1028.4 24.9
2018-Jun-16 16:50N 32°29' W 034°27'0 0.0 1028.5 25.0
2018-Jun-16 15:50N 32°29' W 034°27'0 0.0 1028.6 24.9
2018-Jun-16 14:50N 32°29' W 034°27'1 0.6 1028.8 24.9
2018-Jun-16 13:50N 32°28' W 034°27'0 0.0 1029.0 24.9
2018-Jun-16 12:50N 32°28' W 034°27'1 0.5 1029.1 24.9
2018-Jun-16 11:50N 32°28' W 034°28'1 0.6 1029.1 24.9
2018-Jun-16 10:50N 32°28' W 034°28'1 0.6 1029.1 24.8
2018-Jun-16 09:50N 32°27' W 034°28'1 1.2 1029.2 24.8
2018-Jun-16 08:50N 32°26' W 034°28'0 0.0 1029.0 24.7
2018-Jun-16 07:50N 32°26' W 034°28'1 0.8 1028.7 24.6
2018-Jun-16 06:50N 32°25' W 034°27'1 0.8 1028.2 24.5
2018-Jun-16 05:50N 32°25' W 034°26'1 0.5 1028.0 24.5
2018-Jun-16 04:50N 32°25' W 034°26'0 0.0 1028.1 24.7
2018-Jun-16 03:50N 32°25' W 034°26'1 0.6 1028.2 24.8
2018-Jun-16 02:50N 32°24' W 034°26'1 0.5 1028.8 25.0
2018-Jun-16 01:50N 32°24' W 034°25'0 0.0 1029.1 24.9
2018-Jun-16 00:50N 32°24' W 034°25'1 0.5 1029.5 25.1
2018-Jun-15 23:50N 32°24' W 034°25'1 0.6 1029.5 25.2
2018-Jun-15 22:50N 32°23' W 034°25'1 0.6 1029.4 25.2
2018-Jun-15 21:50N 32°23' W 034°25'1 0.5 1028.8 25.2
2018-Jun-15 20:50N 32°23' W 034°24'1 0.8 1028.5 25.4
2018-Jun-15 19:50N 32°22' W 034°23'1 0.5 1028.3 25.5
2018-Jun-15 18:50N 32°22' W 034°23'1 0.5 1028.1 25.6
2018-Jun-15 17:50N 32°22' W 034°22'1 0.5 1028.4 25.6
2018-Jun-15 16:50N 32°22' W 034°22'1 0.5 1028.6 25.5
2018-Jun-15 15:50N 32°22' W 034°21'1 0.8 1028.7 25.5
2018-Jun-15 14:50N 32°23' W 034°20'0 0.0 1028.9 25.2
2018-Jun-15 12:50N 32°23' W 034°20'0 0.0 1029.2 24.7
2018-Jun-15 11:50N 32°23' W 034°20'1 0.5 1028.9 24.6
2018-Jun-15 10:50N 32°23' W 034°21'1 0.8 1028.9 24.4
2018-Jun-15 09:50N 32°22' W 034°22'0 0.0 1028.9 24.2
2018-Jun-15 08:50N 32°22' W 034°22'1 0.8 1028.6 24.1
2018-Jun-15 07:50N 32°22' W 034°22'1 0.6 1028.3 23.9
2018-Jun-15 06:50N 32°21' W 034°22'1 0.8 1028.2 24.0
2018-Jun-15 05:50N 32°20' W 034°22'2 0.8 1028.1 24.2
2018-Jun-15 03:50N 32°19' W 034°20'1 0.8 1028.5 24.6
2018-Jun-15 02:50N 32°19' W 034°20'1 1.2 1028.6 24.6
2018-Jun-15 01:50N 32°18' W 034°19'1 1.0 1029.0 24.6
2018-Jun-15 00:50N 32°18' W 034°17'1 0.8 1029.2 24.5
2018-Jun-14 23:50N 32°17' W 034°17'1 1.2 1029.1 24.9
2018-Jun-14 22:50N 32°18' W 034°16'1 0.5 1028.9 26.0
2018-Jun-14 21:50N 32°18' W 034°15'1 0.8 1028.5 26.4
2018-Jun-14 20:50N 32°19' W 034°14'1 1.3 1028.4 26.1
2018-Jun-14 19:50N 32°20' W 034°14'0 0.0 1028.0 26.7
2018-Jun-14 18:50N 32°20' W 034°14'1 0.8 1028.2 27.9
2018-Jun-14 17:50N 32°20' W 034°14'1 0.8 1028.3 27.6
2018-Jun-14 16:50N 32°21' W 034°15'1 0.3 1028.6 27.3
2018-Jun-14 14:50N 32°21' W 034°16'1 0.5 1028.7 26.0
2018-Jun-14 13:50N 32°21' W 034°16'0 0.0 1028.9 25.6
2018-Jun-14 12:50N 32°21' W 034°16'1 0.5 1028.9 25.5
2018-Jun-14 11:50N 32°21' W 034°17'1 0.5 1028.9 25.2
2018-Jun-14 10:50N 32°21' W 034°17'1 0.8 1028.9 25.0
2018-Jun-14 09:50N 32°20' W 034°18'1 0.8 1028.9 24.8
2018-Jun-14 08:50N 32°20' W 034°19'1 0.8 1028.6 24.6
2018-Jun-14 07:50N 32°19' W 034°19'1 1.2 1028.4 24.7
2018-Jun-14 06:50N 32°18' W 034°19'1 0.8 1028.1 24.8
2018-Jun-14 05:50N 32°17' W 034°19'1 0.8 1028.0 24.9
2018-Jun-14 04:50N 32°17' W 034°18'1 0.8 1028.1 24.9
2018-Jun-14 03:50N 32°16' W 034°17'1 0.5 1028.3 25.1
2018-Jun-14 02:50N 32°16' W 034°17'1 0.5 1028.6 25.1
2018-Jun-14 01:50N 32°16' W 034°16'1 1.0 1028.9 25.2
2018-Jun-14 00:50N 32°16' W 034°15'1 0.5 1029.4 25.2
2018-Jun-13 23:50N 32°16' W 034°14'1 0.8 1029.3 25.5
2018-Jun-13 22:50N 32°17' W 034°14'0 0.0 1029.0 25.7
2018-Jun-13 21:50N 32°17' W 034°14'1 0.6 1028.6 26.0
2018-Jun-13 20:50N 32°17' W 034°14'1 0.8 1028.3 26.3
2018-Jun-13 19:50N 32°18' W 034°14'1 0.8 1028.2 26.2
2018-Jun-13 18:50N 32°19' W 034°15'1 0.8 1028.1 26.4
2018-Jun-13 17:50N 32°19' W 034°16'1 0.8 1028.4 26.1
2018-Jun-13 16:50N 32°20' W 034°16'1 1.0 1028.8 25.7
2018-Jun-13 15:50N 32°20' W 034°17'1 0.5 1029.0 25.2
2018-Jun-13 14:50N 32°20' W 034°18'1 0.5 1029.3 25.0
2018-Jun-13 13:50N 32°20' W 034°19'1 0.5 1029.4 24.8
2018-Jun-13 12:50N 32°20' W 034°19'1 0.8 1029.3 24.8
2018-Jun-13 11:50N 32°19' W 034°20'1 0.8 1029.1 24.6
2018-Jun-13 10:50N 32°19' W 034°20'1 0.8 1028.8 24.6
2018-Jun-13 09:50N 32°18' W 034°21'1 0.6 1028.8 24.6
2018-Jun-13 08:50N 32°17' W 034°21'0 0.0 1028.3 24.6
2018-Jun-13 07:50N 32°17' W 034°21'1 0.6 1028.0 24.6
2018-Jun-13 06:50N 32°17' W 034°21'1 0.5 1027.7 24.6
2018-Jun-13 05:50N 32°17' W 034°20'1 0.6 1027.3 24.6
2018-Jun-13 04:50N 32°16' W 034°20'1 0.8 1027.5 24.7
2018-Jun-13 03:50N 32°17' W 034°20'1 0.5 1028.0 24.7
2018-Jun-13 02:50N 32°17' W 034°19'1 0.6 1028.4 24.7
2018-Jun-13 01:50N 32°17' W 034°19'0 0.0 1028.5 24.7
2018-Jun-13 00:50N 32°17' W 034°19'1 0.6 1028.9 24.7
2018-Jun-12 23:50N 32°18' W 034°19'0 0.0 1029.2 24.6
2018-Jun-12 22:50N 32°18' W 034°19'1 0.8 1029.1 24.8
2018-Jun-12 21:50N 32°19' W 034°20'1 0.8 1028.6 24.8
2018-Jun-12 20:50N 32°19' W 034°20'1 0.5 1028.2 24.7
2018-Jun-12 19:50N 32°19' W 034°21'1 0.8 1028.0 25.1
2018-Jun-12 18:50N 32°20' W 034°22'1 1.0 1027.9 25.5
2018-Jun-12 17:50N 32°20' W 034°23'1 0.5 1028.1 25.8
2018-Jun-12 16:50N 32°20' W 034°23'1 0.5 1028.1 25.8
2018-Jun-12 15:50N 32°20' W 034°24'1 1.0 1028.0 25.8
2018-Jun-12 14:50N 32°20' W 034°25'1 0.5 1028.0 25.4
2018-Jun-12 13:50N 32°20' W 034°26'1 0.8 1028.2 25.0
2018-Jun-12 12:50N 32°19' W 034°26'1 1.0 1028.4 24.6
2018-Jun-12 11:50N 32°19' W 034°28'1 0.8 1028.2 24.4
2018-Jun-12 10:50N 32°19' W 034°28'1 0.6 1027.8 24.1
2018-Jun-12 09:50N 32°18' W 034°28'1 0.8 1027.6 23.9
2018-Jun-12 08:50N 32°17' W 034°29'1 0.6 1027.1 23.9
2018-Jun-12 07:50N 32°17' W 034°29'1 0.6 1026.7 23.9
2018-Jun-12 06:50N 32°16' W 034°29'1 0.8 1026.3 24.0
2018-Jun-12 05:50N 32°16' W 034°28'1 0.5 1026.3 24.0
2018-Jun-12 04:50N 32°16' W 034°28'0 0.0 1026.3 24.3
2018-Jun-12 03:50N 32°16' W 034°28'1 0.5 1026.5 24.3
2018-Jun-12 02:50N 32°16' W 034°27'1 0.8 1026.8 24.2
2018-Jun-12 01:50N 32°16' W 034°26'0 0.0 1027.1 24.2
2018-Jun-12 00:50N 32°16' W 034°26'0 0.0 1027.4 24.3
2018-Jun-11 23:50N 32°16' W 034°26'1 0.8 1027.4 24.4
2018-Jun-11 22:50N 32°17' W 034°27'0 0.0 1027.1 24.6
2018-Jun-11 21:50N 32°17' W 034°27'1 0.5 1026.6 25.0
2018-Jun-11 20:50N 32°17' W 034°28'1 0.8 1026.2 25.2
2018-Jun-11 19:50N 32°17' W 034°28'1 0.5 1025.8 25.7
2018-Jun-11 18:50N 32°17' W 034°29'1 0.5 1025.8 26.0
2018-Jun-11 17:50N 32°17' W 034°29'1 0.5 1025.9 25.8
2018-Jun-11 16:50N 32°17' W 034°30'1 0.6 1025.9 25.5
2018-Jun-11 15:50N 32°17' W 034°30'1 0.5 1026.0 25.1
2018-Jun-11 14:50N 32°17' W 034°31'1 0.8 1026.3 24.6
2018-Jun-11 13:50N 32°16' W 034°31'1 0.5 1026.6 24.4
2018-Jun-11 12:50N 32°16' W 034°32'1 0.8 1026.5 24.5
2018-Jun-11 11:50N 32°16' W 034°32'1 0.6 1026.4 24.3
2018-Jun-11 10:50N 32°15' W 034°32'1 0.6 1026.2 24.1
2018-Jun-11 09:50N 32°14' W 034°32'0 0.0 1026.2 24.1
2018-Jun-11 08:50N 32°14' W 034°32'1 0.6 1025.6 24.0
2018-Jun-11 07:50N 32°14' W 034°32'1 0.6 1025.3 24.0
2018-Jun-11 06:50N 32°14' W 034°32'1 0.5 1024.9 24.1
2018-Jun-11 05:50N 32°14' W 034°32'0 0.0 1024.9 24.0
2018-Jun-11 04:50N 32°14' W 034°32'1 0.6 1025.0 24.1
2018-Jun-11 03:50N 32°15' W 034°32'0 0.0 1025.3 24.1
2018-Jun-11 02:50N 32°15' W 034°32'1 0.6 1025.7 24.0
2018-Jun-11 01:50N 32°16' W 034°32'1 0.5 1026.1 24.0
2018-Jun-11 00:50N 32°16' W 034°32'0 0.0 1026.2 24.1
2018-Jun-10 23:50N 32°16' W 034°32'0 0.0 1026.2 24.2
2018-Jun-10 22:50N 32°16' W 034°32'1 0.8 1025.9 24.4
2018-Jun-10 21:50N 32°16' W 034°33'1 0.6 1025.5 24.4
2018-Jun-10 20:50N 32°16' W 034°33'1 0.5 1025.4 24.4
2018-Jun-10 19:50N 32°16' W 034°32'0 0.0 1025.0 24.5
2018-Jun-10 18:50N 32°16' W 034°32'0 0.0 1025.1 24.6
2018-Jun-10 17:50N 32°16' W 034°32'1 0.6 1025.2 25.0
2018-Jun-10 16:50N 32°16' W 034°32'1 0.5 1025.3 24.9
2018-Jun-10 15:50N 32°16' W 034°32'1 0.6 1025.3 24.6
2018-Jun-10 14:50N 32°17' W 034°32'1 0.6 1025.7 24.6
2018-Jun-10 13:50N 32°17' W 034°32'0 0.0 1025.8 24.7
2018-Jun-10 12:50N 32°17' W 034°32'1 0.6 1026.0 24.3
2018-Jun-10 11:50N 32°18' W 034°32'1 0.5 1025.8 24.0
2018-Jun-10 10:50N 32°18' W 034°32'1 0.6 1025.8 23.8
2018-Jun-10 09:50N 32°19' W 034°32'0 0.0 1025.7 23.7
2018-Jun-10 08:50N 32°19' W 034°32'1 0.8 1025.3 23.6
2018-Jun-10 07:50N 32°19' W 034°33'1 0.6 1024.9 23.6
2018-Jun-10 06:50N 32°20' W 034°33'1 0.5 1024.5 23.6
2018-Jun-10 05:50N 32°20' W 034°34'1 0.6 1024.2 23.7
2018-Jun-10 04:50N 32°20' W 034°34'0 0.0 1024.6 23.7
2018-Jun-10 03:50N 32°20' W 034°34'1 0.6 1024.8 23.7
2018-Jun-10 02:50N 32°21' W 034°34'1 0.8 1025.5 23.7
2018-Jun-10 01:50N 32°22' W 034°34'1 0.5 1026.0 23.7
2018-Jun-10 00:50N 32°22' W 034°35'1 0.6 1026.5 23.6
2018-Jun-09 23:50N 32°22' W 034°35'1 0.5 1026.8 23.7
2018-Jun-09 22:50N 32°22' W 034°35'1 0.5 1026.5 24.0
2018-Jun-09 21:50N 32°22' W 034°36'1 0.5 1026.0 24.3
2018-Jun-09 20:50N 32°22' W 034°37'1 0.5 1025.7 24.4
2018-Jun-09 19:50N 32°22' W 034°37'1 0.5 1025.5 25.0
2018-Jun-09 18:50N 32°22' W 034°38'0 0.0 1025.2 25.5
2018-Jun-09 17:50N 32°22' W 034°38'0 0.0 1025.4 25.8
2018-Jun-09 16:50N 32°22' W 034°38'1 0.5 1025.4 26.1
2018-Jun-09 15:50N 32°22' W 034°38'1 0.5 1025.7 26.5
2018-Jun-09 14:50N 32°22' W 034°38'0 0.0 1026.1 25.2
2018-Jun-09 13:50N 32°22' W 034°38'0 0.0 1026.3 24.2
2018-Jun-09 12:50N 32°22' W 034°38'1 0.5 1026.4 24.2
2018-Jun-09 11:50N 32°22' W 034°37'1 0.6 1026.4 24.2
2018-Jun-09 10:50N 32°23' W 034°37'1 0.8 1026.3 23.8
2018-Jun-09 09:50N 32°23' W 034°38'1 0.6 1026.3 23.5
2018-Jun-09 08:50N 32°24' W 034°38'1 0.8 1026.0 23.4
2018-Jun-09 07:50N 32°25' W 034°38'1 0.5 1025.8 23.4
2018-Jun-09 06:50N 32°25' W 034°39'1 0.8 1025.5 23.5
2018-Jun-09 05:50N 32°25' W 034°40'1 0.6 1025.4 23.6
2018-Jun-09 04:50N 32°26' W 034°40'1 0.5 1025.6 23.6
2018-Jun-09 03:50N 32°26' W 034°40'   1026.0 23.6
Track history (hours):
 
Tides and Currents Weather Stations Pressure Air Temp Water Temp Dewpoint Dewpoint Depression Visibility Wind Speed Wind Dir Waves Ship Positions

Drifting buoy 13872

Last reported at 2018-Jun-19 03:50 UTC. Time now 2018-Jun-19 04:41 UTC.
Position N 32°52' W 034°25'.

Barometer 1026.6 mb
Water temperature 24.6 ° C

Date/timePositionNaut miles runAvg speedWind from/ knotsBaromVisibWave heightAir tempDewpointWater temp
2018-Jun-19 03:50N 32°52' W 034°25'1 0.8 1026.6 24.6
2018-Jun-19 02:50N 32°51' W 034°25'1 1.0 1026.9 24.7
2018-Jun-19 01:50N 32°51' W 034°26'1 0.8 1027.2 24.7
2018-Jun-19 00:50N 32°50' W 034°27'2 0.8 1027.6 24.7
2018-Jun-18 22:50N 32°49' W 034°28'1 1.2 1027.6 24.5
2018-Jun-18 21:50N 32°48' W 034°28'1 0.6 1027.4 24.6
2018-Jun-18 20:50N 32°47' W 034°28'1 0.8 1027.2 24.7
2018-Jun-18 19:50N 32°47' W 034°29'0 0.0 1026.9 24.9
2018-Jun-18 18:50N 32°47' W 034°29'1 0.6 1026.7 25.0
2018-Jun-18 17:50N 32°46' W 034°29'1 0.6 1027.0 25.0
2018-Jun-18 16:50N 32°46' W 034°29'0 0.0 1027.2 25.0
2018-Jun-18 15:50N 32°46' W 034°29'1 0.6 1027.4 25.0
2018-Jun-18 13:50N 32°44' W 034°29'0 0.0 1027.5 24.8
2018-Jun-18 12:50N 32°44' W 034°29'0 0.0 1027.7 24.8
2018-Jun-18 11:50N 32°44' W 034°29'1 0.8 1027.8 24.7
2018-Jun-18 10:50N 32°44' W 034°29'1 0.5 1027.9 24.7
2018-Jun-18 08:50N 32°44' W 034°31'1 0.5 1027.9 24.7
2018-Jun-18 07:50N 32°44' W 034°31'1 0.5 1027.6 24.7
2018-Jun-18 06:50N 32°44' W 034°32'1 0.8 1027.5 24.7
2018-Jun-18 05:50N 32°43' W 034°32'1 1.2 1027.3 24.7
2018-Jun-18 04:50N 32°43' W 034°34'1 0.8 1027.5 24.7
2018-Jun-18 03:50N 32°42' W 034°34'1 1.2 1027.8 24.6
2018-Jun-18 02:50N 32°41' W 034°34'1 0.6 1028.0 24.7
2018-Jun-18 01:50N 32°40' W 034°34'1 0.6 1028.5 24.7
2018-Jun-18 00:50N 32°40' W 034°34'1 0.6 1028.9 24.7
2018-Jun-17 23:50N 32°39' W 034°34'1 0.5 1029.2 24.8
2018-Jun-17 22:50N 32°39' W 034°34'1 0.8 1029.0 24.8
2018-Jun-17 21:50N 32°38' W 034°33'0 0.0 1028.6 24.7
2018-Jun-17 20:50N 32°38' W 034°33'1 0.5 1028.1 24.7
2018-Jun-17 19:50N 32°38' W 034°32'0 0.0 1027.9 24.7
2018-Jun-17 18:50N 32°38' W 034°32'1 0.6 1027.8 24.7
2018-Jun-17 17:50N 32°38' W 034°32'0 0.0 1028.0 24.7
2018-Jun-17 16:50N 32°38' W 034°32'1 0.6 1028.2 24.8
2018-Jun-17 15:50N 32°37' W 034°32'1 0.6 1028.4 24.8
2018-Jun-17 14:50N 32°37' W 034°32'0 0.0 1028.6 24.7
2018-Jun-17 13:50N 32°37' W 034°32'1 0.6 1028.9 24.5
2018-Jun-17 12:50N 32°36' W 034°32'1 0.8 1029.0 24.6
2018-Jun-17 11:50N 32°35' W 034°32'1 0.6 1028.9 24.6
2018-Jun-17 10:50N 32°35' W 034°32'1 0.6 1028.6 24.7
2018-Jun-17 09:50N 32°34' W 034°32'0 0.0 1028.6 24.7
2018-Jun-17 08:50N 32°34' W 034°32'1 0.6 1028.4 24.6
2018-Jun-17 07:50N 32°34' W 034°32'0 0.0 1028.1 24.5
2018-Jun-17 06:50N 32°34' W 034°32'1 0.6 1027.7 24.5
2018-Jun-17 05:50N 32°33' W 034°32'1 0.6 1027.5 24.5
2018-Jun-17 04:50N 32°32' W 034°32'1 0.8 1027.6 24.6
2018-Jun-17 03:50N 32°32' W 034°31'0 0.0 1028.0 24.8
2018-Jun-17 02:50N 32°32' W 034°31'1 0.6 1028.2 24.9
2018-Jun-17 01:50N 32°31' W 034°31'0 0.0 1028.6 24.9
2018-Jun-17 00:50N 32°31' W 034°31'1 0.6 1029.0 24.9
2018-Jun-16 23:50N 32°31' W 034°31'1 0.5 1029.4 24.9
2018-Jun-16 22:50N 32°31' W 034°31'1 0.8 1029.3 25.0
2018-Jun-16 21:50N 32°30' W 034°30'1 0.6 1028.9 25.0
2018-Jun-16 20:50N 32°29' W 034°30'1 1.2 1028.7 24.9
2018-Jun-16 19:50N 32°29' W 034°29'1 0.5 1028.5 24.9
2018-Jun-16 18:50N 32°29' W 034°28'1 0.5 1028.3 24.8
2018-Jun-16 17:50N 32°29' W 034°28'1 0.5 1028.4 24.9
2018-Jun-16 16:50N 32°29' W 034°27'0 0.0 1028.5 25.0
2018-Jun-16 15:50N 32°29' W 034°27'0 0.0 1028.6 24.9
2018-Jun-16 14:50N 32°29' W 034°27'1 0.6 1028.8 24.9
2018-Jun-16 13:50N 32°28' W 034°27'0 0.0 1029.0 24.9
2018-Jun-16 12:50N 32°28' W 034°27'1 0.5 1029.1 24.9
2018-Jun-16 11:50N 32°28' W 034°28'1 0.6 1029.1 24.9
2018-Jun-16 10:50N 32°28' W 034°28'1 0.6 1029.1 24.8
2018-Jun-16 09:50N 32°27' W 034°28'1 1.2 1029.2 24.8
2018-Jun-16 08:50N 32°26' W 034°28'0 0.0 1029.0 24.7
2018-Jun-16 07:50N 32°26' W 034°28'1 0.8 1028.7 24.6
2018-Jun-16 06:50N 32°25' W 034°27'1 0.8 1028.2 24.5
2018-Jun-16 05:50N 32°25' W 034°26'1 0.5 1028.0 24.5
2018-Jun-16 04:50N 32°25' W 034°26'0 0.0 1028.1 24.7
2018-Jun-16 03:50N 32°25' W 034°26'1 0.6 1028.2 24.8
2018-Jun-16 02:50N 32°24' W 034°26'1 0.5 1028.8 25.0
2018-Jun-16 01:50N 32°24' W 034°25'0 0.0 1029.1 24.9
2018-Jun-16 00:50N 32°24' W 034°25'1 0.5 1029.5 25.1
2018-Jun-15 23:50N 32°24' W 034°25'1 0.6 1029.5 25.2
2018-Jun-15 22:50N 32°23' W 034°25'1 0.6 1029.4 25.2
2018-Jun-15 21:50N 32°23' W 034°25'1 0.5 1028.8 25.2
2018-Jun-15 20:50N 32°23' W 034°24'1 0.8 1028.5 25.4
2018-Jun-15 19:50N 32°22' W 034°23'1 0.5 1028.3 25.5
2018-Jun-15 18:50N 32°22' W 034°23'1 0.5 1028.1 25.6
2018-Jun-15 17:50N 32°22' W 034°22'1 0.5 1028.4 25.6
2018-Jun-15 16:50N 32°22' W 034°22'1 0.5 1028.6 25.5
2018-Jun-15 15:50N 32°22' W 034°21'1 0.8 1028.7 25.5
2018-Jun-15 14:50N 32°23' W 034°20'0 0.0 1028.9 25.2
2018-Jun-15 12:50N 32°23' W 034°20'0 0.0 1029.2 24.7
2018-Jun-15 11:50N 32°23' W 034°20'1 0.5 1028.9 24.6
2018-Jun-15 10:50N 32°23' W 034°21'1 0.8 1028.9 24.4
2018-Jun-15 09:50N 32°22' W 034°22'0 0.0 1028.9 24.2
2018-Jun-15 08:50N 32°22' W 034°22'1 0.8 1028.6 24.1
2018-Jun-15 07:50N 32°22' W 034°22'1 0.6 1028.3 23.9
2018-Jun-15 06:50N 32°21' W 034°22'1 0.8 1028.2 24.0
2018-Jun-15 05:50N 32°20' W 034°22'2 0.8 1028.1 24.2
2018-Jun-15 03:50N 32°19' W 034°20'1 0.8 1028.5 24.6
2018-Jun-15 02:50N 32°19' W 034°20'1 1.2 1028.6 24.6
2018-Jun-15 01:50N 32°18' W 034°19'1 1.0 1029.0 24.6
2018-Jun-15 00:50N 32°18' W 034°17'1 0.8 1029.2 24.5
2018-Jun-14 23:50N 32°17' W 034°17'1 1.2 1029.1 24.9
2018-Jun-14 22:50N 32°18' W 034°16'1 0.5 1028.9 26.0
2018-Jun-14 21:50N 32°18' W 034°15'1 0.8 1028.5 26.4
2018-Jun-14 20:50N 32°19' W 034°14'1 1.3 1028.4 26.1
2018-Jun-14 19:50N 32°20' W 034°14'0 0.0 1028.0 26.7
2018-Jun-14 18:50N 32°20' W 034°14'1 0.8 1028.2 27.9
2018-Jun-14 17:50N 32°20' W 034°14'1 0.8 1028.3 27.6
2018-Jun-14 16:50N 32°21' W 034°15'1 0.3 1028.6 27.3
2018-Jun-14 14:50N 32°21' W 034°16'1 0.5 1028.7 26.0
2018-Jun-14 13:50N 32°21' W 034°16'0 0.0 1028.9 25.6
2018-Jun-14 12:50N 32°21' W 034°16'1 0.5 1028.9 25.5
2018-Jun-14 11:50N 32°21' W 034°17'1 0.5 1028.9 25.2
2018-Jun-14 10:50N 32°21' W 034°17'1 0.8 1028.9 25.0
2018-Jun-14 09:50N 32°20' W 034°18'1 0.8 1028.9 24.8
2018-Jun-14 08:50N 32°20' W 034°19'1 0.8 1028.6 24.6
2018-Jun-14 07:50N 32°19' W 034°19'1 1.2 1028.4 24.7
2018-Jun-14 06:50N 32°18' W 034°19'1 0.8 1028.1 24.8
2018-Jun-14 05:50N 32°17' W 034°19'1 0.8 1028.0 24.9
2018-Jun-14 04:50N 32°17' W 034°18'1 0.8 1028.1 24.9
2018-Jun-14 03:50N 32°16' W 034°17'1 0.5 1028.3 25.1
2018-Jun-14 02:50N 32°16' W 034°17'1 0.5 1028.6 25.1
2018-Jun-14 01:50N 32°16' W 034°16'1 1.0 1028.9 25.2
2018-Jun-14 00:50N 32°16' W 034°15'1 0.5 1029.4 25.2
2018-Jun-13 23:50N 32°16' W 034°14'1 0.8 1029.3 25.5
2018-Jun-13 22:50N 32°17' W 034°14'0 0.0 1029.0 25.7
2018-Jun-13 21:50N 32°17' W 034°14'1 0.6 1028.6 26.0
2018-Jun-13 20:50N 32°17' W 034°14'1 0.8 1028.3 26.3
2018-Jun-13 19:50N 32°18' W 034°14'1 0.8 1028.2 26.2
2018-Jun-13 18:50N 32°19' W 034°15'1 0.8 1028.1 26.4
2018-Jun-13 17:50N 32°19' W 034°16'1 0.8 1028.4 26.1
2018-Jun-13 16:50N 32°20' W 034°16'1 1.0 1028.8 25.7
2018-Jun-13 15:50N 32°20' W 034°17'1 0.5 1029.0 25.2
2018-Jun-13 14:50N 32°20' W 034°18'1 0.5 1029.3 25.0
2018-Jun-13 13:50N 32°20' W 034°19'1 0.5 1029.4 24.8
2018-Jun-13 12:50N 32°20' W 034°19'1 0.8 1029.3 24.8
2018-Jun-13 11:50N 32°19' W 034°20'1 0.8 1029.1 24.6
2018-Jun-13 10:50N 32°19' W 034°20'1 0.8 1028.8 24.6
2018-Jun-13 09:50N 32°18' W 034°21'1 0.6 1028.8 24.6
2018-Jun-13 08:50N 32°17' W 034°21'0 0.0 1028.3 24.6
2018-Jun-13 07:50N 32°17' W 034°21'1 0.6 1028.0 24.6
2018-Jun-13 06:50N 32°17' W 034°21'1 0.5 1027.7 24.6
2018-Jun-13 05:50N 32°17' W 034°20'1 0.6 1027.3 24.6
2018-Jun-13 04:50N 32°16' W 034°20'1 0.8 1027.5 24.7
2018-Jun-13 03:50N 32°17' W 034°20'1 0.5 1028.0 24.7
2018-Jun-13 02:50N 32°17' W 034°19'1 0.6 1028.4 24.7
2018-Jun-13 01:50N 32°17' W 034°19'0 0.0 1028.5 24.7
2018-Jun-13 00:50N 32°17' W 034°19'1 0.6 1028.9 24.7
2018-Jun-12 23:50N 32°18' W 034°19'0 0.0 1029.2 24.6
2018-Jun-12 22:50N 32°18' W 034°19'1 0.8 1029.1 24.8
2018-Jun-12 21:50N 32°19' W 034°20'1 0.8 1028.6 24.8
2018-Jun-12 20:50N 32°19' W 034°20'1 0.5 1028.2 24.7
2018-Jun-12 19:50N 32°19' W 034°21'1 0.8 1028.0 25.1
2018-Jun-12 18:50N 32°20' W 034°22'1 1.0 1027.9 25.5
2018-Jun-12 17:50N 32°20' W 034°23'1 0.5 1028.1 25.8
2018-Jun-12 16:50N 32°20' W 034°23'1 0.5 1028.1 25.8
2018-Jun-12 15:50N 32°20' W 034°24'1 1.0 1028.0 25.8
2018-Jun-12 14:50N 32°20' W 034°25'1 0.5 1028.0 25.4
2018-Jun-12 13:50N 32°20' W 034°26'1 0.8 1028.2 25.0
2018-Jun-12 12:50N 32°19' W 034°26'1 1.0 1028.4 24.6
2018-Jun-12 11:50N 32°19' W 034°28'1 0.8 1028.2 24.4
2018-Jun-12 10:50N 32°19' W 034°28'1 0.6 1027.8 24.1
2018-Jun-12 09:50N 32°18' W 034°28'1 0.8 1027.6 23.9
2018-Jun-12 08:50N 32°17' W 034°29'1 0.6 1027.1 23.9
2018-Jun-12 07:50N 32°17' W 034°29'1 0.6 1026.7 23.9
2018-Jun-12 06:50N 32°16' W 034°29'1 0.8 1026.3 24.0
2018-Jun-12 05:50N 32°16' W 034°28'1 0.5 1026.3 24.0
2018-Jun-12 04:50N 32°16' W 034°28'0 0.0 1026.3 24.3
2018-Jun-12 03:50N 32°16' W 034°28'1 0.5 1026.5 24.3
2018-Jun-12 02:50N 32°16' W 034°27'1 0.8 1026.8 24.2
2018-Jun-12 01:50N 32°16' W 034°26'0 0.0 1027.1 24.2
2018-Jun-12 00:50N 32°16' W 034°26'0 0.0 1027.4 24.3
2018-Jun-11 23:50N 32°16' W 034°26'1 0.8 1027.4 24.4
2018-Jun-11 22:50N 32°17' W 034°27'0 0.0 1027.1 24.6
2018-Jun-11 21:50N 32°17' W 034°27'1 0.5 1026.6 25.0
2018-Jun-11 20:50N 32°17' W 034°28'1 0.8 1026.2 25.2
2018-Jun-11 19:50N 32°17' W 034°28'1 0.5 1025.8 25.7
2018-Jun-11 18:50N 32°17' W 034°29'1 0.5 1025.8 26.0
2018-Jun-11 17:50N 32°17' W 034°29'1 0.5 1025.9 25.8
2018-Jun-11 16:50N 32°17' W 034°30'1 0.6 1025.9 25.5
2018-Jun-11 15:50N 32°17' W 034°30'1 0.5 1026.0 25.1
2018-Jun-11 14:50N 32°17' W 034°31'1 0.8 1026.3 24.6
2018-Jun-11 13:50N 32°16' W 034°31'1 0.5 1026.6 24.4
2018-Jun-11 12:50N 32°16' W 034°32'1 0.8 1026.5 24.5
2018-Jun-11 11:50N 32°16' W 034°32'1 0.6 1026.4 24.3
2018-Jun-11 10:50N 32°15' W 034°32'1 0.6 1026.2 24.1
2018-Jun-11 09:50N 32°14' W 034°32'0 0.0 1026.2 24.1
2018-Jun-11 08:50N 32°14' W 034°32'1 0.6 1025.6 24.0
2018-Jun-11 07:50N 32°14' W 034°32'1 0.6 1025.3 24.0
2018-Jun-11 06:50N 32°14' W 034°32'1 0.5 1024.9 24.1
2018-Jun-11 05:50N 32°14' W 034°32'0 0.0 1024.9 24.0
2018-Jun-11 04:50N 32°14' W 034°32'1 0.6 1025.0 24.1
2018-Jun-11 03:50N 32°15' W 034°32'0 0.0 1025.3 24.1
2018-Jun-11 02:50N 32°15' W 034°32'1 0.6 1025.7 24.0
2018-Jun-11 01:50N 32°16' W 034°32'1 0.5 1026.1 24.0
2018-Jun-11 00:50N 32°16' W 034°32'0 0.0 1026.2 24.1
2018-Jun-10 23:50N 32°16' W 034°32'0 0.0 1026.2 24.2
2018-Jun-10 22:50N 32°16' W 034°32'1 0.8 1025.9 24.4
2018-Jun-10 21:50N 32°16' W 034°33'1 0.6 1025.5 24.4
2018-Jun-10 20:50N 32°16' W 034°33'1 0.5 1025.4 24.4
2018-Jun-10 19:50N 32°16' W 034°32'0 0.0 1025.0 24.5
2018-Jun-10 18:50N 32°16' W 034°32'0 0.0 1025.1 24.6
2018-Jun-10 17:50N 32°16' W 034°32'1 0.6 1025.2 25.0
2018-Jun-10 16:50N 32°16' W 034°32'1 0.5 1025.3 24.9
2018-Jun-10 15:50N 32°16' W 034°32'1 0.6 1025.3 24.6
2018-Jun-10 14:50N 32°17' W 034°32'1 0.6 1025.7 24.6
2018-Jun-10 13:50N 32°17' W 034°32'0 0.0 1025.8 24.7
2018-Jun-10 12:50N 32°17' W 034°32'1 0.6 1026.0 24.3
2018-Jun-10 11:50N 32°18' W 034°32'1 0.5 1025.8 24.0
2018-Jun-10 10:50N 32°18' W 034°32'1 0.6 1025.8 23.8
2018-Jun-10 09:50N 32°19' W 034°32'0 0.0 1025.7 23.7
2018-Jun-10 08:50N 32°19' W 034°32'1 0.8 1025.3 23.6
2018-Jun-10 07:50N 32°19' W 034°33'1 0.6 1024.9 23.6
2018-Jun-10 06:50N 32°20' W 034°33'1 0.5 1024.5 23.6
2018-Jun-10 05:50N 32°20' W 034°34'1 0.6 1024.2 23.7
2018-Jun-10 04:50N 32°20' W 034°34'0 0.0 1024.6 23.7
2018-Jun-10 03:50N 32°20' W 034°34'1 0.6 1024.8 23.7
2018-Jun-10 02:50N 32°21' W 034°34'1 0.8 1025.5 23.7
2018-Jun-10 01:50N 32°22' W 034°34'1 0.5 1026.0 23.7
2018-Jun-10 00:50N 32°22' W 034°35'1 0.6 1026.5 23.6
2018-Jun-09 23:50N 32°22' W 034°35'1 0.5 1026.8 23.7
2018-Jun-09 22:50N 32°22' W 034°35'1 0.5 1026.5 24.0
2018-Jun-09 21:50N 32°22' W 034°36'1 0.5 1026.0 24.3
2018-Jun-09 20:50N 32°22' W 034°37'1 0.5 1025.7 24.4
2018-Jun-09 19:50N 32°22' W 034°37'1 0.5 1025.5 25.0
2018-Jun-09 18:50N 32°22' W 034°38'0 0.0 1025.2 25.5
2018-Jun-09 17:50N 32°22' W 034°38'0 0.0 1025.4 25.8
2018-Jun-09 16:50N 32°22' W 034°38'1 0.5 1025.4 26.1
2018-Jun-09 15:50N 32°22' W 034°38'1 0.5 1025.7 26.5
2018-Jun-09 14:50N 32°22' W 034°38'0 0.0 1026.1 25.2
2018-Jun-09 13:50N 32°22' W 034°38'0 0.0 1026.3 24.2
2018-Jun-09 12:50N 32°22' W 034°38'1 0.5 1026.4 24.2
2018-Jun-09 11:50N 32°22' W 034°37'1 0.6 1026.4 24.2
2018-Jun-09 10:50N 32°23' W 034°37'1 0.8 1026.3 23.8
2018-Jun-09 09:50N 32°23' W 034°38'1 0.6 1026.3 23.5
2018-Jun-09 08:50N 32°24' W 034°38'1 0.8 1026.0 23.4
2018-Jun-09 07:50N 32°25' W 034°38'1 0.5 1025.8 23.4
2018-Jun-09 06:50N 32°25' W 034°39'1 0.8 1025.5 23.5
2018-Jun-09 05:50N 32°25' W 034°40'1 0.6 1025.4 23.6
2018-Jun-09 04:50N 32°26' W 034°40'1 0.5 1025.6 23.6
2018-Jun-09 03:50N 32°26' W 034°40'   1026.0 23.6

Dump ship's entire track history